createdAt,value
2019-02-28T00:01:46.347Z,4.40
2019-02-28T00:04:16.455Z,4.40
2019-02-28T00:06:46.109Z,4.30
2019-02-28T00:09:16.014Z,4.30
2019-02-28T00:11:45.588Z,4.40
2019-02-28T00:14:15.155Z,4.50
2019-02-28T00:16:44.758Z,4.50
2019-02-28T00:19:14.366Z,4.30
2019-02-28T00:21:44.042Z,4.20
2019-02-28T00:24:13.669Z,4.10
2019-02-28T00:26:47.559Z,4.10
2019-02-28T00:29:14.566Z,4.10
2019-02-28T00:31:49.497Z,4.00
2019-02-28T00:34:15.433Z,4.00
2019-02-28T00:36:45.059Z,4.10
2019-02-28T00:39:14.653Z,4.30
2019-02-28T00:41:44.727Z,4.30
2019-02-28T00:44:14.393Z,4.20
2019-02-28T00:46:45.209Z,4.10
2019-02-28T00:49:15.047Z,4.00
2019-02-28T00:51:44.639Z,4.00
2019-02-28T00:54:14.263Z,4.00
2019-02-28T00:56:43.827Z,3.90
2019-02-28T00:59:13.419Z,3.90
2019-02-28T01:01:45.718Z,3.80
2019-02-28T01:04:14.254Z,3.70
2019-02-28T01:06:43.882Z,3.60
2019-02-28T01:09:13.621Z,3.60
2019-02-28T01:11:44.811Z,3.60
2019-02-28T01:14:14.487Z,3.60
2019-02-28T01:16:44.491Z,3.60
2019-02-28T01:19:14.071Z,3.60
2019-02-28T01:21:43.707Z,3.60
2019-02-28T01:24:13.300Z,3.70
2019-02-28T01:26:43.338Z,3.70
2019-02-28T01:29:14.218Z,3.60
2019-02-28T01:31:43.864Z,3.50
2019-02-28T01:34:13.409Z,3.40
2019-02-28T01:36:43.047Z,3.20
2019-02-28T01:39:12.646Z,3.10
2019-02-28T01:41:45.001Z,2.90
2019-02-28T01:44:13.475Z,2.90
2019-02-28T01:46:43.117Z,2.90
2019-02-28T01:49:12.705Z,2.90
2019-02-28T01:51:42.309Z,2.90
2019-02-28T01:54:11.943Z,2.90
2019-02-28T01:56:41.507Z,3.00
2019-02-28T01:59:11.118Z,3.00
2019-02-28T02:01:40.778Z,3.10
2019-02-28T02:04:12.557Z,3.10
2019-02-28T02:06:41.614Z,3.00
2019-02-28T02:09:11.858Z,3.00
2019-02-28T02:14:32.413Z,2.90
2019-02-28T02:17:02.203Z,2.80
2019-02-28T02:19:31.827Z,2.70
2019-02-28T02:22:01.421Z,2.70
2019-02-28T02:24:30.957Z,2.80
2019-02-28T02:27:00.553Z,2.90
2019-02-28T02:29:32.389Z,3.00
2019-02-28T02:32:02.618Z,2.90
2019-02-28T02:34:32.255Z,2.90
2019-02-28T02:37:01.874Z,2.80
2019-02-28T02:39:31.524Z,2.80
2019-02-28T02:42:01.118Z,2.80
2019-02-28T02:44:31.921Z,2.80
2019-02-28T02:47:01.798Z,2.80
2019-02-28T02:49:31.374Z,2.90
2019-02-28T02:52:00.980Z,2.90
2019-02-28T02:54:30.569Z,2.90
2019-02-28T02:57:00.207Z,2.80
2019-02-28T02:59:37.482Z,2.80
2019-02-28T03:02:01.062Z,2.80
2019-02-28T03:04:30.634Z,2.80
2019-02-28T03:07:00.268Z,2.80
2019-02-28T03:09:29.906Z,2.80
2019-02-28T03:11:59.481Z,2.80
2019-02-28T03:14:29.074Z,2.70
2019-02-28T03:16:58.677Z,2.70
2019-02-28T03:19:33.106Z,2.60
2019-02-28T03:21:59.520Z,2.60
2019-02-28T03:24:29.114Z,2.60
2019-02-28T03:26:58.699Z,2.60
2019-02-28T03:29:28.371Z,2.60
2019-02-28T03:31:59.617Z,2.60
2019-02-28T03:34:29.226Z,2.60
2019-02-28T03:36:58.849Z,2.60
2019-02-28T03:39:28.446Z,2.60
2019-02-28T03:41:58.229Z,2.50
2019-02-28T03:44:27.814Z,2.40
2019-02-28T03:46:57.460Z,2.40
2019-02-28T03:49:27.068Z,2.40
2019-02-28T03:51:56.687Z,2.40
2019-02-28T03:54:28.875Z,2.40
2019-02-28T03:56:57.647Z,2.50
2019-02-28T03:59:27.266Z,2.50
2019-02-28T04:01:56.868Z,2.50
2019-02-28T04:04:26.579Z,2.50
2019-02-28T04:06:56.161Z,2.50
2019-02-28T04:09:25.766Z,2.50
2019-02-28T04:11:55.379Z,2.50
2019-02-28T04:14:28.551Z,2.40
2019-02-28T04:16:56.262Z,2.40
2019-02-28T04:19:25.845Z,2.40
2019-02-28T04:21:55.482Z,2.30
2019-02-28T04:24:25.139Z,2.30
2019-02-28T04:26:54.687Z,2.20
2019-02-28T04:29:30.041Z,2.20
2019-02-28T04:31:57.955Z,2.20
2019-02-28T04:34:26.906Z,2.30
2019-02-28T04:36:56.496Z,2.30
2019-02-28T04:39:26.205Z,2.30
2019-02-28T04:41:55.846Z,2.20
2019-02-28T04:44:25.410Z,2.20
2019-02-28T04:46:54.998Z,2.10
2019-02-28T04:49:24.658Z,2.00
2019-02-28T04:51:54.266Z,2.10
2019-02-28T04:54:24.617Z,2.00
2019-02-28T04:56:55.138Z,2.00
2019-02-28T04:59:24.698Z,2.70
2019-02-28T05:01:54.687Z,3.20
2019-02-28T05:04:24.321Z,3.60
2019-02-28T05:06:55.161Z,4.00
2019-02-28T05:09:25.158Z,4.00
2019-02-28T05:11:54.805Z,4.10
2019-02-28T05:14:24.475Z,4.20
2019-02-28T05:16:54.010Z,4.10
2019-02-28T05:19:24.003Z,4.20
2019-02-28T05:21:54.368Z,4.30
2019-02-28T05:24:24.115Z,4.50
2019-02-28T05:26:53.755Z,3.90
2019-02-28T05:29:23.363Z,3.50
2019-02-28T05:31:52.954Z,3.20
2019-02-28T05:34:22.620Z,3.00
2019-02-28T05:36:52.292Z,2.80
2019-02-28T05:39:21.968Z,2.60
2019-02-28T05:41:51.657Z,2.50
2019-02-28T05:44:21.461Z,2.40
2019-02-28T05:46:51.188Z,2.50
2019-02-28T05:49:20.820Z,3.30
2019-02-28T05:51:50.412Z,3.20
2019-02-28T05:54:20.235Z,3.00
2019-02-28T05:56:50.053Z,2.80
2019-02-28T05:59:19.647Z,2.80
2019-02-28T06:01:49.291Z,2.60
2019-02-28T06:04:19.054Z,2.50
2019-02-28T06:06:51.293Z,2.60
2019-02-28T06:09:19.931Z,2.60
2019-02-28T06:11:49.543Z,2.50
2019-02-28T06:14:19.095Z,2.80
2019-02-28T06:16:48.682Z,3.20
2019-02-28T06:19:20.220Z,3.10
2019-02-28T06:21:49.511Z,2.90
2019-02-28T06:24:19.121Z,2.70
2019-02-28T06:26:48.802Z,3.10
2019-02-28T06:29:18.383Z,2.90
2019-02-28T06:31:48.597Z,2.80
2019-02-28T06:34:19.135Z,2.60
2019-02-28T06:36:48.853Z,2.50
2019-02-28T06:39:18.732Z,2.40
2019-02-28T06:41:48.356Z,2.30
2019-02-28T06:44:17.945Z,2.30
2019-02-28T06:46:47.526Z,2.50
2019-02-28T06:49:17.150Z,2.70
2019-02-28T06:51:48.338Z,2.80
2019-02-28T06:54:18.029Z,2.90
2019-02-28T06:56:47.671Z,3.10
2019-02-28T06:59:17.247Z,3.20
2019-02-28T07:01:46.867Z,3.20
2019-02-28T07:04:16.510Z,3.20
2019-02-28T07:06:46.104Z,3.30
2019-02-28T07:09:15.728Z,3.30
2019-02-28T07:11:45.350Z,3.30
2019-02-28T07:14:15.022Z,3.30
2019-02-28T07:16:44.615Z,3.40
2019-02-28T07:19:14.282Z,3.40
2019-02-28T07:21:44.361Z,3.40
2019-02-28T07:24:14.106Z,3.50
2019-02-28T07:26:43.786Z,3.50
2019-02-28T07:29:13.443Z,3.60
2019-02-28T07:31:43.043Z,3.50
2019-02-28T07:34:12.654Z,3.50
2019-02-28T07:36:44.826Z,3.40
2019-02-28T07:39:13.675Z,3.50
2019-02-28T07:41:43.329Z,3.50
2019-02-28T07:44:12.926Z,3.60
2019-02-28T07:46:43.388Z,3.60
2019-02-28T07:49:13.127Z,3.70
2019-02-28T07:51:42.702Z,3.80
2019-02-28T07:54:12.724Z,4.00
2019-02-28T07:56:44.293Z,4.40
2019-02-28T07:59:14.074Z,5.00
2019-02-28T08:01:43.723Z,5.40
2019-02-28T08:04:18.111Z,5.70
2019-02-28T08:06:44.619Z,5.80
2019-02-28T08:09:28.210Z,5.50
2019-02-28T08:11:57.885Z,5.30
2019-02-28T08:14:27.484Z,5.10
2019-02-28T08:16:57.172Z,5.00
2019-02-28T08:19:27.984Z,5.00
2019-02-28T08:21:57.785Z,5.00
2019-02-28T08:24:27.437Z,5.70
2019-02-28T08:26:57.055Z,6.30
2019-02-28T08:29:26.616Z,6.70
2019-02-28T08:31:57.531Z,6.90
2019-02-28T08:34:27.231Z,7.10
2019-02-28T08:36:56.825Z,7.20
2019-02-28T08:39:26.533Z,7.40
2019-02-28T08:42:02.563Z,7.40
2019-02-28T08:44:27.355Z,7.00
2019-02-28T08:46:57.031Z,6.60
2019-02-28T08:49:26.764Z,6.50
2019-02-28T08:51:56.473Z,6.50
2019-02-28T08:54:27.357Z,6.60
2019-02-28T08:56:57.337Z,6.60
2019-02-28T08:59:26.932Z,6.70
2019-02-28T09:01:56.608Z,6.80
2019-02-28T09:04:26.193Z,7.00
2019-02-28T09:06:56.094Z,7.00
2019-02-28T09:09:25.764Z,7.20
2019-02-28T09:11:58.177Z,7.40
2019-02-28T09:14:26.686Z,7.50
2019-02-28T09:16:56.400Z,7.50
2019-02-28T09:19:25.988Z,7.60
2019-02-28T09:21:55.619Z,7.60
2019-02-28T09:24:26.018Z,7.70
2019-02-28T09:26:55.877Z,7.80
2019-02-28T09:29:26.288Z,7.90
2019-02-28T09:31:56.277Z,8.10
2019-02-28T09:34:25.957Z,8.30
2019-02-28T09:36:56.818Z,8.50
2019-02-28T09:39:26.648Z,8.70
2019-02-28T09:41:56.348Z,8.80
2019-02-28T09:44:25.906Z,8.90
2019-02-28T09:46:55.643Z,9.00
2019-02-28T09:49:25.254Z,9.10
2019-02-28T09:51:54.874Z,9.20
2019-02-28T09:54:25.482Z,9.30
2019-02-28T09:56:55.161Z,9.50
2019-02-28T09:59:24.844Z,9.60
2019-02-28T10:02:01.108Z,9.70
2019-02-28T10:04:27.300Z,9.80
2019-02-28T10:06:57.078Z,10.00
2019-02-28T10:09:26.679Z,10.10
2019-02-28T10:11:56.402Z,10.20
2019-02-28T10:14:28.761Z,10.30
2019-02-28T10:16:57.322Z,10.60
2019-02-28T10:19:26.930Z,10.70
2019-02-28T10:21:56.628Z,10.90
2019-02-28T10:24:28.407Z,11.10
2019-02-28T10:26:57.679Z,11.20
2019-02-28T10:29:27.310Z,11.30
2019-02-28T10:31:57.014Z,11.40
2019-02-28T10:34:27.801Z,11.40
2019-02-28T10:36:57.447Z,11.60
2019-02-28T10:39:27.111Z,11.70
2019-02-28T10:41:56.861Z,11.80
2019-02-28T10:44:30.266Z,12.00
2019-02-28T10:46:57.854Z,12.10
2019-02-28T10:49:27.925Z,12.20
2019-02-28T10:51:57.530Z,12.40
2019-02-28T10:54:27.234Z,12.60
2019-02-28T10:56:56.905Z,12.70
2019-02-28T10:59:26.510Z,12.80
2019-02-28T11:01:56.132Z,12.90
2019-02-28T11:04:27.582Z,13.00
2019-02-28T11:06:59.345Z,13.20
2019-02-28T11:09:28.694Z,13.40
2019-02-28T11:11:58.293Z,13.70
2019-02-28T11:14:27.934Z,14.00
2019-02-28T11:16:59.518Z,14.20
2019-02-28T11:19:29.003Z,14.40
2019-02-28T11:22:01.500Z,14.60
2019-02-28T11:24:29.979Z,14.70
2019-02-28T11:26:59.770Z,15.00
2019-02-28T11:29:29.386Z,15.20
2019-02-28T11:31:59.110Z,15.30
2019-02-28T11:34:28.718Z,15.50
2019-02-28T11:36:58.426Z,15.50
2019-02-28T11:39:30.501Z,15.80
2019-02-28T11:41:59.886Z,16.10
2019-02-28T11:44:29.515Z,16.40
2019-02-28T11:46:59.182Z,16.70
2019-02-28T11:49:29.454Z,17.10
2019-02-28T11:51:59.209Z,17.50
2019-02-28T11:54:28.866Z,17.90
2019-02-28T11:57:02.492Z,18.10
2019-02-28T11:59:29.862Z,18.40
2019-02-28T12:01:59.512Z,18.70
2019-02-28T12:04:29.124Z,18.90
2019-02-28T12:07:00.998Z,19.00
2019-02-28T12:09:30.018Z,19.30
2019-02-28T12:11:59.662Z,19.50
2019-02-28T12:14:30.053Z,19.80
2019-02-28T12:16:59.758Z,20.00
2019-02-28T12:19:29.398Z,20.30
2019-02-28T12:22:00.179Z,20.50
2019-02-28T12:24:32.382Z,20.80
2019-02-28T12:27:01.172Z,21.20
2019-02-28T12:29:30.771Z,21.50
2019-02-28T12:32:00.479Z,21.80
2019-02-28T12:34:30.106Z,22.20
2019-02-28T12:36:59.988Z,22.30
2019-02-28T12:39:30.181Z,22.20
2019-02-28T12:42:00.369Z,22.00
2019-02-28T12:44:29.983Z,22.00
2019-02-28T12:46:59.766Z,22.40
2019-02-28T12:49:29.352Z,22.50
2019-02-28T12:51:58.996Z,22.70
2019-02-28T12:54:30.328Z,23.00
2019-02-28T12:57:00.016Z,23.30
2019-02-28T12:59:29.736Z,23.70
2019-02-28T13:01:59.382Z,23.90
2019-02-28T13:04:29.089Z,24.00
2019-02-28T13:06:59.482Z,24.00
2019-02-28T13:09:30.236Z,24.00
2019-02-28T13:12:00.186Z,23.90
2019-02-28T13:14:29.795Z,23.90
2019-02-28T13:16:59.510Z,23.90
2019-02-28T13:19:29.189Z,23.90
2019-02-28T13:21:58.871Z,23.90
2019-02-28T13:24:28.514Z,24.10
2019-02-28T13:26:58.312Z,24.30
2019-02-28T13:29:28.798Z,24.50
2019-02-28T13:32:01.460Z,24.60
2019-02-28T13:34:30.775Z,24.60
2019-02-28T13:37:02.914Z,24.80
2019-02-28T13:39:32.737Z,24.90
2019-02-28T13:42:03.000Z,24.90
2019-02-28T13:44:36.410Z,24.90
2019-02-28T13:47:09.383Z,25.00
2019-02-28T13:49:38.443Z,24.90
2019-02-28T13:52:08.002Z,24.90
2019-02-28T13:54:38.121Z,25.30
2019-02-28T13:57:10.108Z,25.40
2019-02-28T13:59:40.011Z,25.60
2019-02-28T14:02:09.651Z,26.00
2019-02-28T14:04:39.272Z,26.70
2019-02-28T14:07:08.902Z,27.40
2019-02-28T14:09:38.514Z,28.00
2019-02-28T14:12:08.247Z,28.50
2019-02-28T14:14:39.017Z,29.00
2019-02-28T14:17:09.195Z,29.20
2019-02-28T14:19:38.888Z,29.40
2019-02-28T14:22:11.311Z,29.60
2019-02-28T14:24:39.850Z,29.80
2019-02-28T14:27:09.504Z,30.10
2019-02-28T14:29:39.164Z,30.20
2019-02-28T14:32:08.776Z,30.20
2019-02-28T14:34:38.431Z,30.30
2019-02-28T14:37:08.134Z,30.20
2019-02-28T14:39:39.734Z,30.20
2019-02-28T14:42:09.092Z,30.10
2019-02-28T14:44:38.842Z,29.90
2019-02-28T14:47:08.530Z,29.50
2019-02-28T14:49:38.204Z,29.10
2019-02-28T14:52:07.867Z,28.70
2019-02-28T14:54:37.522Z,28.60
2019-02-28T14:57:07.185Z,28.50
2019-02-28T14:59:36.822Z,28.40
2019-02-28T15:02:06.498Z,28.20
2019-02-28T15:04:36.113Z,28.10
2019-02-28T15:07:05.753Z,27.90
2019-02-28T15:09:35.406Z,27.70
2019-02-28T15:12:05.193Z,27.40
2019-02-28T15:14:34.866Z,27.10
2019-02-28T15:17:06.834Z,26.80
2019-02-28T15:19:36.049Z,26.60
2019-02-28T15:22:05.727Z,26.50
2019-02-28T15:24:35.439Z,26.40
2019-02-28T15:27:05.498Z,26.20
2019-02-28T15:29:35.227Z,26.00
2019-02-28T15:32:04.908Z,25.90
2019-02-28T15:34:37.518Z,25.70
2019-02-28T15:37:05.936Z,25.60
2019-02-28T15:39:35.534Z,25.50
2019-02-28T15:42:05.554Z,25.30
2019-02-28T15:44:36.556Z,25.10
2019-02-28T15:47:06.372Z,24.90
2019-02-28T15:49:36.219Z,24.60
2019-02-28T15:52:06.311Z,24.20
2019-02-28T15:54:36.080Z,23.80
2019-02-28T15:57:05.755Z,23.50
2019-02-28T15:59:35.780Z,23.20
2019-02-28T16:02:06.351Z,23.00
2019-02-28T16:04:36.870Z,22.70
2019-02-28T16:07:06.625Z,22.30
2019-02-28T16:09:36.335Z,22.00
2019-02-28T16:12:06.569Z,21.80
2019-02-28T16:14:36.315Z,21.50
2019-02-28T16:17:05.967Z,21.20
2019-02-28T16:19:35.566Z,21.10
2019-02-28T16:22:05.382Z,20.90
2019-02-28T16:24:36.764Z,20.70
2019-02-28T16:27:06.266Z,20.50
2019-02-28T16:29:36.028Z,20.30
2019-02-28T16:32:05.805Z,20.00
2019-02-28T16:34:35.441Z,19.70
2019-02-28T16:37:05.152Z,19.50
2019-02-28T16:39:34.758Z,19.20
2019-02-28T16:42:04.480Z,19.00
2019-02-28T16:44:34.201Z,18.60
2019-02-28T16:47:03.865Z,18.40
2019-02-28T16:49:33.473Z,18.20
2019-02-28T16:52:06.054Z,18.10
2019-02-28T16:54:34.492Z,18.10
2019-02-28T16:57:04.122Z,18.00
2019-02-28T16:59:33.745Z,18.00
2019-02-28T17:02:03.383Z,18.00
2019-02-28T17:04:32.989Z,17.90
2019-02-28T17:07:02.799Z,18.00
2019-02-28T17:09:38.444Z,17.90
2019-02-28T17:12:27.207Z,17.60
2019-02-28T17:14:57.695Z,17.50
2019-02-28T17:17:38.561Z,17.50
2019-02-28T17:20:08.507Z,17.40
2019-02-28T17:22:38.210Z,17.10
2019-02-28T17:25:07.933Z,17.10
2019-02-28T17:27:42.360Z,17.10
2019-02-28T17:30:32.978Z,17.10
2019-02-28T17:33:05.789Z,17.10
2019-02-28T17:35:35.086Z,16.90
2019-02-28T17:38:04.706Z,16.80
2019-02-28T17:40:34.907Z,16.80
2019-02-28T17:43:04.557Z,16.80
2019-02-28T17:45:35.838Z,16.70
2019-02-28T17:48:58.132Z,16.70
2019-02-28T17:51:41.457Z,16.60
2019-02-28T17:55:03.001Z,16.40
2019-02-28T17:57:57.830Z,16.20
2019-02-28T18:01:10.433Z,15.90
2019-02-28T18:04:05.522Z,15.80
2019-02-28T18:07:28.737Z,15.70
2019-02-28T18:10:11.721Z,15.60
2019-02-28T18:13:06.141Z,15.50
2019-02-28T18:16:24.818Z,15.50
2019-02-28T18:19:33.126Z,15.50
2019-02-28T18:22:30.178Z,15.40
2019-02-28T18:25:41.319Z,15.30
2019-02-28T18:29:07.193Z,15.30
2019-02-28T18:31:36.812Z,15.10
2019-02-28T18:34:09.353Z,14.90
2019-02-28T18:36:40.164Z,14.80
2019-02-28T18:39:11.627Z,14.70
2019-02-28T18:41:42.980Z,14.30
2019-02-28T18:44:12.881Z,14.10
2019-02-28T18:46:42.541Z,13.90
2019-02-28T18:49:12.215Z,13.80
2019-02-28T18:51:41.929Z,13.60
2019-02-28T18:54:11.735Z,13.50
2019-02-28T18:56:41.780Z,13.50
2019-02-28T18:59:11.443Z,13.50
2019-02-28T19:01:41.110Z,13.50
2019-02-28T19:04:10.750Z,13.50
2019-02-28T19:06:40.442Z,13.40
2019-02-28T19:09:23.784Z,13.30
2019-02-28T19:11:53.440Z,13.10
2019-02-28T19:14:23.099Z,12.90
2019-02-28T19:16:52.794Z,12.90
2019-02-28T19:19:22.646Z,12.80
2019-02-28T19:21:52.259Z,12.70
2019-02-28T19:24:21.865Z,12.50
2019-02-28T19:26:51.564Z,12.40
2019-02-28T19:29:21.221Z,12.30
2019-02-28T19:31:50.818Z,12.30
2019-02-28T19:34:20.523Z,12.30
2019-02-28T19:36:50.248Z,12.10
2019-02-28T19:39:19.899Z,12.00
2019-02-28T19:41:49.572Z,11.80
2019-02-28T19:44:19.191Z,11.70
2019-02-28T19:46:48.830Z,11.50
2019-02-28T19:49:18.538Z,11.50
2019-02-28T19:51:48.197Z,11.50
2019-02-28T19:54:17.862Z,11.60
2019-02-28T19:56:47.527Z,11.60
2019-02-28T19:59:17.132Z,11.50
2019-02-28T20:01:46.793Z,11.40
2019-02-28T20:04:16.454Z,11.30
2019-02-28T20:06:46.104Z,11.20
2019-02-28T20:09:15.835Z,11.20
2019-02-28T20:11:45.577Z,11.10
2019-02-28T20:14:15.207Z,11.10
2019-02-28T20:16:44.917Z,11.00
2019-02-28T20:19:14.733Z,10.90
2019-02-28T20:21:44.414Z,10.80
2019-02-28T20:24:14.843Z,10.80
2019-02-28T20:26:44.560Z,10.70
2019-02-28T20:29:14.215Z,10.70
2019-02-28T20:31:43.856Z,10.60
2019-02-28T20:34:13.656Z,10.60
2019-02-28T20:36:43.292Z,10.50
2019-02-28T20:39:14.146Z,10.40
2019-02-28T20:41:43.833Z,10.50
2019-02-28T20:44:13.431Z,10.50
2019-02-28T20:46:43.062Z,10.30
2019-02-28T20:49:12.723Z,10.20
2019-02-28T20:51:42.400Z,10.10
2019-02-28T20:54:12.041Z,10.00
2019-02-28T20:56:41.701Z,10.00
2019-02-28T20:59:11.379Z,10.10
2019-02-28T21:01:41.023Z,10.20
2019-02-28T21:04:10.742Z,10.10
2019-02-28T21:06:40.453Z,10.00
2019-02-28T21:09:10.380Z,10.00
2019-02-28T21:11:40.020Z,9.90
2019-02-28T21:14:09.967Z,9.80
2019-02-28T21:16:39.610Z,9.80
2019-02-28T21:19:09.260Z,9.60
2019-02-28T21:21:38.881Z,9.40
2019-02-28T21:24:08.493Z,9.20
2019-02-28T21:26:38.191Z,9.20
2019-02-28T21:29:07.821Z,9.30
2019-02-28T21:31:37.458Z,9.20
2019-02-28T21:34:07.132Z,9.20
2019-02-28T21:36:36.873Z,9.20
2019-02-28T21:39:08.280Z,9.20
2019-02-28T21:41:37.953Z,9.10
2019-02-28T21:44:07.541Z,9.00
2019-02-28T21:46:37.184Z,9.00
2019-02-28T21:49:06.799Z,8.90
2019-02-28T21:51:36.443Z,8.80
2019-02-28T21:54:06.040Z,8.80
2019-02-28T21:56:35.731Z,8.80
2019-02-28T21:59:05.492Z,8.70
2019-02-28T22:01:35.121Z,8.70
2019-02-28T22:04:04.768Z,8.60
2019-02-28T22:06:34.410Z,8.50
2019-02-28T22:09:23.045Z,8.30
2019-02-28T22:11:52.651Z,8.30
2019-02-28T22:14:22.260Z,8.30
2019-02-28T22:16:51.912Z,8.30
2019-02-28T22:19:21.518Z,8.20
2019-02-28T22:21:51.291Z,8.20
2019-02-28T22:24:20.934Z,8.20
2019-02-28T22:26:50.552Z,8.10
2019-02-28T22:29:20.192Z,8.10
2019-02-28T22:32:08.765Z,8.00
2019-02-28T22:35:00.148Z,7.90
2019-02-28T22:37:30.039Z,7.70
2019-02-28T22:39:59.643Z,7.60
2019-02-28T22:42:29.239Z,7.60
2019-02-28T22:44:58.886Z,7.50
2019-02-28T22:47:28.539Z,7.50
2019-02-28T22:49:58.255Z,7.50
2019-02-28T22:52:27.899Z,7.40
2019-02-28T22:54:57.546Z,7.50
2019-02-28T22:57:27.165Z,7.60
2019-02-28T22:59:56.851Z,7.60
2019-02-28T23:02:27.610Z,7.60
2019-02-28T23:04:57.614Z,7.70
2019-02-28T23:07:27.284Z,7.60
2019-02-28T23:09:56.880Z,7.60
2019-02-28T23:12:26.474Z,7.50
2019-02-28T23:14:56.158Z,7.30
2019-02-28T23:17:25.827Z,7.20
2019-02-28T23:19:55.496Z,7.20
2019-02-28T23:22:25.207Z,7.00
2019-02-28T23:24:54.850Z,7.00
2019-02-28T23:27:24.533Z,6.90
2019-02-28T23:30:59.726Z,7.00
2019-02-28T23:33:29.431Z,7.00
2019-02-28T23:35:59.052Z,7.00
2019-02-28T23:38:28.673Z,7.00
2019-02-28T23:40:58.334Z,7.00
2019-02-28T23:43:27.994Z,7.00
2019-02-28T23:45:57.730Z,6.90
2019-02-28T23:48:27.354Z,6.90
2019-02-28T23:50:57.028Z,6.90
2019-02-28T23:53:27.647Z,6.90
2019-02-28T23:55:57.399Z,6.80
2019-02-28T23:58:27.099Z,6.70
